アテネ の空港の天気 - METARとTAF

アテネ国際空港 ( LGAV / ATH ) - ギリシャ アテネ
飛行場実況気象(Metar)
観測時間01/20 19:20 EET (01/20 17:20 UTC)
風向・風速北 4m/s
視程10km以上
天気現象
少しの雲 雲底高度 760m
全天の4割程度の雲 雲底高度 1220m
気温7℃
湿度70%
気圧1030hPa
METARLGAV 201720Z 36008KT 9999 FEW025 SCT040 07/02 Q1030 NOSIG
過去の天気等 Google飛行場航空写真 Wunderground天気予報

過去48時間のMETAR

飛行場予報(TAF)
発表時間: 1/20 19:00 EET (1/20 17:00 UTC)
予報対象時間: 20日20時 EET ~ 21日20時 EET
風向・風速北 8m/s
視程10km以上
少しの雲 雲底高度 760m
全天の4割程度の雲 雲底高度 1,220m
TAF LGAV 201700Z 2018/2118 01015KT 9999 FEW025 SCT040